Time;durP1;ratioP1;P1;durP2;ratioP2;P2;SDS_P1;SDS_P2;PMS_P1;PMS_P2;Temp;Humidity;BMP_temperature;BMP_pressure;BME280_temperature;BME280_humidity;BME280_pressure;Samples;Min_cycle;Max_cycle;Signal;HPM_P1;HPM_P2
2021/03/13 00:01:09;;;;;;;48.43;7.60;;;;;;;;;;6373502;22;20090;-76
2021/03/13 00:03:35;;;;;;;32.70;5.77;;;;;;;;;;6349099;22;20089;-76
2021/03/13 00:06:01;;;;;;;37.47;7.80;;;;;;;;;;6376474;22;20005;-77
2021/03/13 00:08:27;;;;;;;37.37;6.03;;;;;;;;;;6377059;22;20404;-75
2021/03/13 00:10:53;;;;;;;45.80;9.03;;;;;;;;;;6347405;22;20009;-78
2021/03/13 00:13:19;;;;;;;30.83;6.10;;;;;;;;;;6374169;22;20063;-76
2021/03/13 00:15:46;;;;;;;35.63;6.70;;;;;;;;;;6352149;22;20002;-76
2021/03/13 00:18:12;;;;;;;32.13;5.77;;;;;;;;;;6378468;22;20089;-77
2021/03/13 00:20:39;;;;;;;35.43;6.27;;;;;;;;;;6375161;22;20014;-78
2021/03/13 00:23:06;;;;;;;38.10;8.10;;;;;;;;;;6351738;22;20014;-76
2021/03/13 00:25:32;;;;;;;33.70;5.60;;;;;;;;;;6354468;22;20003;-76
2021/03/13 00:28:06;;;;;;;30.57;5.27;;;;;;;;;;6373166;22;20037;-76
2021/03/13 00:30:37;;;;;;;31.80;5.40;;;;;;;;;;6378935;22;20029;-77
2021/03/13 00:33:06;;;;;;;35.40;4.60;;;;;;;;;;6373818;22;20420;-77
2021/03/13 00:35:33;;;;;;;29.53;5.30;;;;;;;;;;6372321;22;20041;-78
2021/03/13 00:37:59;;;;;;;30.73;4.40;;;;;;;;;;6345032;22;20015;-76
2021/03/13 00:40:27;;;;;;;29.90;5.37;;;;;;;;;;6372204;22;20013;-77
2021/03/13 00:42:53;;;;;;;36.53;6.63;;;;;;;;;;6372913;22;20332;-77
2021/03/13 00:45:22;;;;;;;25.77;5.20;;;;;;;;;;6371136;22;20006;-77
2021/03/13 00:47:48;;;;;;;25.27;4.97;;;;;;;;;;6375158;22;19995;-76
2021/03/13 00:50:15;;;;;;;26.60;3.90;;;;;;;;;;6347506;22;20343;-76
2021/03/13 00:52:41;;;;;;;27.37;4.67;;;;;;;;;;6372885;22;20013;-76
2021/03/13 00:55:08;;;;;;;27.20;6.00;;;;;;;;;;6373399;22;20428;-76
2021/03/13 00:57:35;;;;;;;24.03;5.80;;;;;;;;;;6372544;22;20002;-77
2021/03/13 01:00:01;;;;;;;26.17;4.50;;;;;;;;;;6373307;22;19998;-75
2021/03/13 01:02:27;;;;;;;25.37;5.07;;;;;;;;;;6371313;22;20097;-77
2021/03/13 01:04:54;;;;;;;19.33;4.17;;;;;;;;;;6375729;22;20412;-77
2021/03/13 01:07:20;;;;;;;23.30;4.67;;;;;;;;;;6374564;22;20003;-78
2021/03/13 01:09:45;;;;;;;26.00;6.70;;;;;;;;;;6349223;22;20081;-77
2021/03/13 01:12:12;;;;;;;25.87;4.80;;;;;;;;;;6349345;22;20325;-76
2021/03/13 01:14:38;;;;;;;27.10;4.93;;;;;;;;;;6374759;22;20014;-78
2021/03/13 01:17:04;;;;;;;27.90;5.83;;;;;;;;;;6377526;22;20413;-77
2021/03/13 01:19:30;;;;;;;24.97;5.90;;;;;;;;;;6349309;22;20009;-77
2021/03/13 01:21:56;;;;;;;19.60;4.70;;;;;;;;;;6348298;22;20428;-78
2021/03/13 01:24:22;;;;;;;28.27;6.10;;;;;;;;;;6377101;22;20073;-78
2021/03/13 01:26:49;;;;;;;23.10;4.00;;;;;;;;;;6348777;22;20018;-77
2021/03/13 01:29:15;;;;;;;20.23;5.30;;;;;;;;;;6375318;22;20014;-77
2021/03/13 01:31:41;;;;;;;25.13;5.07;;;;;;;;;;6348726;22;20062;-77
2021/03/13 01:34:07;;;;;;;35.70;6.20;;;;;;;;;;6348453;22;20404;-76
2021/03/13 01:36:45;;;;;;;25.77;4.97;;;;;;;;;;6377549;22;20081;-78
2021/03/13 01:39:11;;;;;;;32.17;5.27;;;;;;;;;;6376496;22;20369;-77
2021/03/13 01:41:37;;;;;;;24.67;4.20;;;;;;;;;;6349605;22;20416;-77
2021/03/13 01:44:03;;;;;;;25.73;4.27;;;;;;;;;;6352508;22;20053;-78
2021/03/13 01:46:29;;;;;;;18.37;4.17;;;;;;;;;;6380409;22;20030;-76
2021/03/13 01:48:56;;;;;;;20.90;4.87;;;;;;;;;;6381940;22;19998;-76
2021/03/13 01:51:22;;;;;;;13.27;4.47;;;;;;;;;;6380697;22;20010;-77
2021/03/13 01:53:49;;;;;;;23.43;6.60;;;;;;;;;;6380514;22;20013;-77
2021/03/13 01:56:16;;;;;;;24.93;6.67;;;;;;;;;;6380163;22;20374;-77
2021/03/13 01:58:42;;;;;;;29.53;5.43;;;;;;;;;;6378221;22;20010;-77
2021/03/13 02:01:08;;;;;;;25.50;7.53;;;;;;;;;;6373755;22;20077;-77
2021/03/13 02:03:34;;;;;;;31.60;8.83;;;;;;;;;;6373517;22;20002;-79
2021/03/13 02:06:00;;;;;;;27.67;9.53;;;;;;;;;;6375090;22;20003;-77
2021/03/13 02:08:29;;;;;;;25.57;10.23;;;;;;;;;;6375585;22;20094;-78
2021/03/13 02:11:02;;;;;;;24.17;7.27;;;;;;;;;;6377264;22;20002;-78
2021/03/13 02:13:27;;;;;;;18.63;6.90;;;;;;;;;;6378454;22;20014;-77
2021/03/13 02:16:10;;;;;;;24.27;6.70;;;;;;;;;;6380148;22;20011;-76
2021/03/13 02:18:56;;;;;;;22.47;6.57;;;;;;;;;;6380157;22;20020;-78
2021/03/13 02:21:24;;;;;;;20.33;7.50;;;;;;;;;;6373778;22;20013;-78
2021/03/13 02:24:06;;;;;;;27.57;8.03;;;;;;;;;;6375345;22;20094;-76
2021/03/13 02:26:52;;;;;;;32.60;9.07;;;;;;;;;;6376269;22;20071;-76
2021/03/13 02:29:36;;;;;;;25.70;8.87;;;;;;;;;;6376243;22;20451;-77
2021/03/13 02:32:04;;;;;;;19.35;8.68;;;;;;;;;;6373687;22;20006;-78
2021/03/13 02:34:31;;;;;;;32.37;8.87;;;;;;;;;;6375596;22;20005;-77
2021/03/13 02:37:01;;;;;;;24.27;10.27;;;;;;;;;;6375245;22;20010;-77
2021/03/13 02:39:28;;;;;;;38.30;10.30;;;;;;;;;;6377101;22;19998;-76
2021/03/13 02:41:57;;;;;;;19.50;8.50;;;;;;;;;;6375117;22;20302;-78
2021/03/13 02:44:24;;;;;;;24.33;10.43;;;;;;;;;;6378780;22;20050;-78
2021/03/13 02:46:51;;;;;;;30.37;9.70;;;;;;;;;;6375925;22;19995;-78
2021/03/13 02:49:17;;;;;;;24.97;8.73;;;;;;;;;;6349060;22;20007;-77
2021/03/13 02:51:43;;;;;;;17.33;8.77;;;;;;;;;;6375987;22;20010;-76
2021/03/13 02:54:10;;;;;;;15.57;9.20;;;;;;;;;;6376279;22;20006;-76
2021/03/13 02:56:36;;;;;;;20.90;10.80;;;;;;;;;;6347876;22;20006;-77
2021/03/13 02:59:03;;;;;;;21.10;10.37;;;;;;;;;;6377834;22;20083;-77
2021/03/13 03:01:29;;;;;;;21.93;11.30;;;;;;;;;;6349406;22;20015;-77
2021/03/13 03:03:56;;;;;;;27.27;12.47;;;;;;;;;;6350206;22;20011;-77
2021/03/13 03:06:22;;;;;;;16.27;9.27;;;;;;;;;;6349923;22;20088;-79
2021/03/13 03:08:49;;;;;;;20.37;9.63;;;;;;;;;;6350449;22;20002;-79
2021/03/13 03:11:15;;;;;;;17.63;9.33;;;;;;;;;;6376731;22;20002;-77
2021/03/13 03:13:41;;;;;;;23.33;10.93;;;;;;;;;;6351442;22;20018;-78
2021/03/13 03:16:08;;;;;;;20.27;10.13;;;;;;;;;;6350860;22;20011;-76
2021/03/13 03:18:34;;;;;;;19.03;8.70;;;;;;;;;;6352150;22;20010;-79
2021/03/13 03:21:01;;;;;;;16.47;7.30;;;;;;;;;;6353323;22;20067;-79
2021/03/13 03:23:28;;;;;;;15.77;8.30;;;;;;;;;;6354956;22;20097;-79
2021/03/13 03:25:54;;;;;;;20.07;9.90;;;;;;;;;;6382081;22;20007;-78
2021/03/13 03:28:21;;;;;;;23.57;9.87;;;;;;;;;;6385007;22;20014;-77
2021/03/13 03:30:48;;;;;;;17.20;8.03;;;;;;;;;;6381829;22;20002;-80
2021/03/13 03:33:14;;;;;;;20.00;8.97;;;;;;;;;;6383974;22;19998;-77
2021/03/13 03:35:41;;;;;;;18.73;9.40;;;;;;;;;;6354588;22;20018;-79
2021/03/13 03:38:07;;;;;;;21.17;9.33;;;;;;;;;;6354168;22;20022;-78
2021/03/13 03:40:34;;;;;;;20.80;7.57;;;;;;;;;;6356473;22;20017;-79
2021/03/13 03:43:03;;;;;;;13.43;8.00;;;;;;;;;;6384543;22;20007;-77
2021/03/13 03:45:29;;;;;;;18.47;7.07;;;;;;;;;;6385543;22;20003;-80
2021/03/13 03:47:55;;;;;;;19.43;7.23;;;;;;;;;;6386743;22;20035;-78
2021/03/13 03:50:23;;;;;;;15.00;7.00;;;;;;;;;;6387268;22;19998;-78
2021/03/13 03:52:50;;;;;;;24.23;7.07;;;;;;;;;;6389549;22;20006;-79
2021/03/13 03:55:20;;;;;;;23.17;6.57;;;;;;;;;;6387588;22;20062;-78
2021/03/13 03:57:46;;;;;;;14.77;5.80;;;;;;;;;;6360304;22;20018;-77
2021/03/13 04:00:13;;;;;;;19.00;5.43;;;;;;;;;;6387157;22;20049;-77
2021/03/13 04:02:40;;;;;;;20.13;6.10;;;;;;;;;;6358890;22;20021;-79
2021/03/13 04:05:07;;;;;;;17.53;4.83;;;;;;;;;;6383573;22;20006;-78
2021/03/13 04:07:34;;;;;;;16.87;5.03;;;;;;;;;;6379387;22;20006;-78
2021/03/13 04:10:02;;;;;;;16.03;4.63;;;;;;;;;;6377318;22;20006;-77
2021/03/13 04:12:28;;;;;;;18.57;4.57;;;;;;;;;;6381258;22;20002;-78
2021/03/13 04:14:55;;;;;;;17.70;5.27;;;;;;;;;;6356862;22;20037;-80
2021/03/13 04:17:21;;;;;;;11.87;4.37;;;;;;;;;;6383581;22;19999;-78
2021/03/13 04:19:47;;;;;;;19.53;4.73;;;;;;;;;;6354623;22;20028;-78
2021/03/13 04:22:13;;;;;;;15.90;4.00;;;;;;;;;;6353187;22;20028;-79
2021/03/13 04:24:40;;;;;;;16.90;4.90;;;;;;;;;;6354476;22;20038;-76
2021/03/13 04:27:07;;;;;;;23.17;5.50;;;;;;;;;;6381924;22;20045;-80
2021/03/13 04:29:33;;;;;;;12.67;4.60;;;;;;;;;;6356625;22;20350;-78
2021/03/13 04:32:01;;;;;;;21.33;5.20;;;;;;;;;;6373995;22;20419;-78
2021/03/13 04:34:29;;;;;;;25.10;5.37;;;;;;;;;;6378074;22;20075;-79
2021/03/13 04:36:55;;;;;;;20.90;5.00;;;;;;;;;;6380781;22;20007;-78
2021/03/13 04:39:21;;;;;;;29.70;6.07;;;;;;;;;;6351757;22;19998;-78
2021/03/13 04:41:48;;;;;;;14.63;3.57;;;;;;;;;;6351215;22;20367;-78
2021/03/13 04:44:14;;;;;;;27.47;4.87;;;;;;;;;;6377002;22;20451;-77
2021/03/13 04:46:40;;;;;;;16.23;4.40;;;;;;;;;;6375587;22;20014;-77
2021/03/13 04:49:06;;;;;;;20.57;4.33;;;;;;;;;;6350892;22;20010;-78
2021/03/13 04:51:33;;;;;;;14.67;3.73;;;;;;;;;;6374606;22;20014;-78
2021/03/13 04:53:59;;;;;;;23.63;4.37;;;;;;;;;;6347351;22;20021;-78
2021/03/13 04:56:25;;;;;;;25.50;4.53;;;;;;;;;;6373252;22;20014;-77
2021/03/13 04:58:51;;;;;;;17.73;4.17;;;;;;;;;;6373799;22;20301;-78
2021/03/13 05:01:17;;;;;;;15.77;3.60;;;;;;;;;;6373100;22;20007;-78
2021/03/13 05:03:43;;;;;;;11.37;3.50;;;;;;;;;;6346959;22;20010;-79
2021/03/13 05:06:09;;;;;;;24.50;3.80;;;;;;;;;;6375326;22;20006;-80
2021/03/13 05:08:37;;;;;;;31.60;4.67;;;;;;;;;;6351595;22;20006;-80
2021/03/13 05:11:03;;;;;;;19.67;3.77;;;;;;;;;;6351501;22;20034;-77
2021/03/13 05:13:29;;;;;;;28.87;6.03;;;;;;;;;;6378055;22;20055;-78
2021/03/13 05:15:55;;;;;;;23.57;4.33;;;;;;;;;;6356797;22;20011;-79
2021/03/13 05:18:21;;;;;;;12.63;3.17;;;;;;;;;;6353535;22;20058;-79
2021/03/13 05:20:47;;;;;;;10.43;2.73;;;;;;;;;;6380798;22;20038;-77
2021/03/13 05:23:13;;;;;;;15.13;2.60;;;;;;;;;;6382822;22;20014;-77
2021/03/13 05:25:39;;;;;;;15.30;2.00;;;;;;;;;;6383307;22;20010;-77
2021/03/13 05:28:05;;;;;;;9.97;1.37;;;;;;;;;;6351203;22;20026;-78
2021/03/13 05:30:31;;;;;;;10.50;1.20;;;;;;;;;;6375919;22;20325;-77
2021/03/13 05:32:57;;;;;;;17.60;1.67;;;;;;;;;;6348653;22;20013;-78
2021/03/13 05:35:23;;;;;;;11.47;1.13;;;;;;;;;;6374582;22;20006;-79
2021/03/13 05:37:49;;;;;;;11.83;1.43;;;;;;;;;;6349568;22;20007;-78
2021/03/13 05:40:15;;;;;;;13.77;2.07;;;;;;;;;;6375799;22;20386;-79
2021/03/13 05:42:41;;;;;;;14.83;2.17;;;;;;;;;;6377329;22;20030;-77
2021/03/13 05:45:08;;;;;;;15.77;2.63;;;;;;;;;;6377268;22;20044;-78
2021/03/13 05:47:36;;;;;;;20.20;2.93;;;;;;;;;;6377175;22;20012;-79
2021/03/13 05:50:05;;;;;;;32.63;4.40;;;;;;;;;;6377172;22;20002;-78
2021/03/13 05:52:32;;;;;;;17.63;3.33;;;;;;;;;;6378019;22;20006;-78
2021/03/13 05:54:58;;;;;;;27.73;5.50;;;;;;;;;;6353897;22;20010;-78
2021/03/13 05:57:25;;;;;;;32.50;4.17;;;;;;;;;;6381269;22;20016;-77
2021/03/13 05:59:51;;;;;;;35.07;5.33;;;;;;;;;;6383092;22;20447;-78
2021/03/13 06:02:20;;;;;;;42.93;5.40;;;;;;;;;;6355704;22;20006;-78
2021/03/13 06:04:46;;;;;;;39.77;7.43;;;;;;;;;;6382504;22;20006;-79
2021/03/13 06:07:14;;;;;;;35.43;4.73;;;;;;;;;;6385446;22;20388;-77
2021/03/13 06:09:41;;;;;;;38.80;5.63;;;;;;;;;;6384726;22;20002;-79
2021/03/13 06:12:07;;;;;;;41.07;7.53;;;;;;;;;;6356839;22;20015;-77
2021/03/13 06:14:33;;;;;;;36.87;7.37;;;;;;;;;;6377053;22;20007;-78
2021/03/13 06:16:59;;;;;;;33.07;6.60;;;;;;;;;;6376337;22;20507;-76
2021/03/13 06:19:45;;;;;;;34.60;5.97;;;;;;;;;;6376310;22;20017;-77
2021/03/13 06:22:25;;;;;;;38.80;6.30;;;;;;;;;;6377724;22;20018;-76
2021/03/13 06:24:51;;;;;;;38.73;7.17;;;;;;;;;;6381225;22;20010;-76
2021/03/13 06:27:17;;;;;;;43.77;7.97;;;;;;;;;;6350046;22;20326;-77
2021/03/13 06:29:43;;;;;;;35.60;5.40;;;;;;;;;;6358220;22;20018;-76
2021/03/13 06:32:14;;;;;;;33.43;6.30;;;;;;;;;;6349895;22;20309;-77
2021/03/13 06:34:41;;;;;;;39.37;6.20;;;;;;;;;;6374228;22;20022;-79
2021/03/13 06:37:39;;;;;;;29.97;6.33;;;;;;;;;;6376004;22;20024;-77
2021/03/13 06:40:06;;;;;;;42.17;8.60;;;;;;;;;;6282072;22;20062;-77
2021/03/13 06:42:32;;;;;;;45.53;7.17;;;;;;;;;;6349714;22;20006;-78
2021/03/13 06:45:04;;;;;;;42.73;6.23;;;;;;;;;;6349941;22;20003;-77
2021/03/13 06:47:37;;;;;;;39.93;6.77;;;;;;;;;;6379619;22;20001;-77
2021/03/13 06:50:16;;;;;;;40.20;8.13;;;;;;;;;;6377577;22;20010;-79
2021/03/13 06:52:47;;;;;;;44.00;8.33;;;;;;;;;;6373379;22;20017;-79
2021/03/13 06:55:23;;;;;;;46.23;7.70;;;;;;;;;;6373165;22;20015;-77
2021/03/13 06:57:50;;;;;;;37.60;5.77;;;;;;;;;;6375265;22;20328;-80
2021/03/13 07:00:27;;;;;;;46.07;8.10;;;;;;;;;;6375126;22;20007;-77
2021/03/13 07:03:03;;;;;;;34.20;7.10;;;;;;;;;;6374253;22;20014;-78
2021/03/13 07:05:29;;;;;;;41.93;6.17;;;;;;;;;;6375260;22;20006;-76
2021/03/13 07:07:55;;;;;;;46.50;8.60;;;;;;;;;;6348322;22;20007;-78
2021/03/13 07:10:27;;;;;;;45.17;7.83;;;;;;;;;;6375536;22;20082;-76
2021/03/13 07:12:53;;;;;;;42.53;9.40;;;;;;;;;;6379721;22;20011;-77
2021/03/13 07:15:19;;;;;;;41.90;7.70;;;;;;;;;;6353815;22;20016;-77
2021/03/13 07:17:49;;;;;;;35.80;7.10;;;;;;;;;;6378432;22;20006;-79
2021/03/13 07:20:15;;;;;;;33.83;6.50;;;;;;;;;;6375862;22;21358;-77
2021/03/13 07:22:41;;;;;;;34.77;7.77;;;;;;;;;;6375993;22;20014;-77
2021/03/13 07:25:09;;;;;;;34.47;6.10;;;;;;;;;;6374996;22;20044;-77
2021/03/13 07:27:40;;;;;;;41.13;8.27;;;;;;;;;;6348444;22;20022;-79
2021/03/13 07:30:14;;;;;;;47.37;9.47;;;;;;;;;;6373576;22;20018;-78
2021/03/13 07:32:42;;;;;;;38.25;5.47;;;;;;;;;;6373279;22;20021;-77
2021/03/13 07:35:10;;;;;;;31.93;6.17;;;;;;;;;;6374493;22;20036;-77
2021/03/13 07:37:37;;;;;;;37.30;7.73;;;;;;;;;;6375856;22;20351;-79
2021/03/13 07:40:04;;;;;;;40.23;6.73;;;;;;;;;;6376818;22;20032;-78
2021/03/13 07:42:30;;;;;;;35.63;7.17;;;;;;;;;;6351124;22;20010;-77
2021/03/13 07:44:56;;;;;;;30.83;6.83;;;;;;;;;;6351889;22;20010;-79
2021/03/13 07:47:23;;;;;;;35.33;6.53;;;;;;;;;;6350370;22;19994;-79
2021/03/13 07:49:51;;;;;;;34.70;5.63;;;;;;;;;;6378918;22;20383;-78
2021/03/13 07:52:18;;;;;;;32.77;5.73;;;;;;;;;;6377776;22;20131;-78
2021/03/13 07:54:45;;;;;;;33.47;6.03;;;;;;;;;;6378628;22;20018;-79
2021/03/13 07:57:11;;;;;;;33.70;6.23;;;;;;;;;;6378579;22;20013;-76
2021/03/13 07:59:48;;;;;;;46.13;7.37;;;;;;;;;;6378968;22;20006;-77
2021/03/13 08:02:29;;;;;;;31.47;5.80;;;;;;;;;;6355006;22;20017;-77
2021/03/13 08:04:57;;;;;;;30.83;6.50;;;;;;;;;;6379688;22;20055;-77
2021/03/13 08:07:23;;;;;;;45.63;9.17;;;;;;;;;;6380131;22;20036;-78
2021/03/13 08:09:50;;;;;;;40.90;5.67;;;;;;;;;;6380050;22;20007;-77
2021/03/13 08:12:34;;;;;;;35.83;6.30;;;;;;;;;;6352106;22;20006;-77
2021/03/13 08:15:00;;;;;;;40.25;6.45;;;;;;;;;;6378053;22;20021;-78
2021/03/13 08:17:38;;;;;;;43.70;8.80;;;;;;;;;;6377331;22;20002;-76
2021/03/13 08:20:11;;;;;;;41.03;6.73;;;;;;;;;;6379722;22;20074;-77
2021/03/13 08:22:37;;;;;;;37.83;6.47;;;;;;;;;;6351027;22;20017;-76
2021/03/13 08:25:23;;;;;;;39.80;6.57;;;;;;;;;;6379500;22;20002;-76
2021/03/13 08:27:49;;;;;;;34.97;6.80;;;;;;;;;;6375959;22;20547;-76
2021/03/13 08:30:16;;;;;;;40.17;4.93;;;;;;;;;;6348266;22;20037;-77
2021/03/13 08:33:02;;;;;;;39.60;9.07;;;;;;;;;;6372803;22;20076;-77
2021/03/13 08:35:36;;;;;;;40.40;6.30;;;;;;;;;;6373232;22;20002;-76
2021/03/13 08:38:02;;;;;;;33.00;5.77;;;;;;;;;;6374669;22;20096;-78
2021/03/13 08:40:28;;;;;;;47.53;7.30;;;;;;;;;;6346253;22;20011;-78
2021/03/13 08:42:54;;;;;;;43.77;7.33;;;;;;;;;;6346170;22;20022;-77
2021/03/13 08:45:20;;;;;;;36.20;7.77;;;;;;;;;;6346845;22;20006;-78
2021/03/13 08:47:53;;;;;;;44.50;9.23;;;;;;;;;;6346964;22;20069;-77
2021/03/13 08:50:37;;;;;;;41.53;7.33;;;;;;;;;;6347429;22;20082;-76
2021/03/13 08:53:22;;;;;;;42.33;8.30;;;;;;;;;;6373914;22;20018;-77
2021/03/13 08:55:48;;;;;;;28.88;6.68;;;;;;;;;;6376094;22;20006;-79
2021/03/13 08:58:33;;;;;;;42.67;8.40;;;;;;;;;;6376453;22;20048;-78
2021/03/13 09:01:14;;;;;;;48.92;8.25;;;;;;;;;;6376264;22;20009;-77
2021/03/13 09:03:47;;;;;;;30.20;5.77;;;;;;;;;;6379513;22;20010;-77
2021/03/13 09:06:13;;;;;;;37.17;7.67;;;;;;;;;;6379313;22;20010;-76
2021/03/13 09:08:39;;;;;;;39.40;6.60;;;;;;;;;;6351541;22;20014;-76
2021/03/13 09:11:05;;;;;;;44.57;8.33;;;;;;;;;;6351572;22;20447;-76
2021/03/13 09:13:31;;;;;;;38.77;6.83;;;;;;;;;;6378950;22;20006;-77
2021/03/13 09:15:57;;;;;;;38.57;8.57;;;;;;;;;;6376006;22;20436;-77
2021/03/13 09:18:23;;;;;;;42.23;9.53;;;;;;;;;;6347332;22;20002;-77
2021/03/13 09:20:49;;;;;;;43.27;8.97;;;;;;;;;;6347508;22;20018;-77
2021/03/13 09:23:15;;;;;;;44.27;8.10;;;;;;;;;;6348096;22;20021;-76
2021/03/13 09:25:41;;;;;;;38.93;6.60;;;;;;;;;;6348137;22;20006;-76
2021/03/13 09:28:07;;;;;;;44.30;8.37;;;;;;;;;;6349228;22;20045;-76
2021/03/13 09:30:35;;;;;;;32.43;6.07;;;;;;;;;;6380378;22;20013;-77
2021/03/13 09:33:01;;;;;;;38.17;7.97;;;;;;;;;;6379766;22;20071;-77
2021/03/13 09:35:28;;;;;;;33.97;7.23;;;;;;;;;;6352707;22;20005;-77
2021/03/13 09:37:55;;;;;;;38.43;7.03;;;;;;;;;;6376260;22;20098;-78
2021/03/13 09:40:22;;;;;;;38.90;8.53;;;;;;;;;;6376194;22;20006;-77
2021/03/13 09:42:49;;;;;;;47.57;7.57;;;;;;;;;;6351822;22;20014;-78
2021/03/13 09:45:16;;;;;;;39.50;8.90;;;;;;;;;;6347926;22;20010;-77
2021/03/13 09:47:43;;;;;;;41.07;10.07;;;;;;;;;;6373895;22;20029;-78
2021/03/13 09:50:09;;;;;;;44.10;7.93;;;;;;;;;;6374501;22;20010;-78
2021/03/13 09:52:38;;;;;;;39.67;6.63;;;;;;;;;;6375943;22;20446;-78
2021/03/13 09:55:04;;;;;;;47.77;9.53;;;;;;;;;;6375562;22;20002;-77
2021/03/13 09:57:30;;;;;;;44.30;8.70;;;;;;;;;;6379448;22;20025;-77
2021/03/13 09:59:56;;;;;;;38.10;8.23;;;;;;;;;;6374954;22;20006;-78
2021/03/13 10:02:22;;;;;;;39.83;8.23;;;;;;;;;;6375351;22;20018;-77
2021/03/13 10:04:52;;;;;;;38.27;7.63;;;;;;;;;;6349059;22;20091;-78
2021/03/13 10:07:19;;;;;;;47.90;8.50;;;;;;;;;;6350497;22;20010;-78
2021/03/13 10:10:02;;;;;;;45.70;7.90;;;;;;;;;;6376432;22;20006;-78
2021/03/13 10:12:42;;;;;;;32.50;5.40;;;;;;;;;;6351089;22;20028;-77
2021/03/13 10:15:12;;;;;;;46.47;8.40;;;;;;;;;;6378694;22;20007;-77
2021/03/13 10:18:09;;;;;;;57.57;8.23;;;;;;;;;;6377327;22;20006;-77
2021/03/13 10:20:36;;;;;;;38.77;6.97;;;;;;;;;;6330044;22;20002;-77
2021/03/13 10:23:03;;;;;;;38.53;7.33;;;;;;;;;;6384673;22;20439;-78
2021/03/13 10:25:29;;;;;;;40.00;9.13;;;;;;;;;;6386217;22;20002;-79
2021/03/13 10:28:02;;;;;;;47.83;9.43;;;;;;;;;;6385470;22;20010;-77
2021/03/13 10:30:28;;;;;;;41.43;8.40;;;;;;;;;;6385414;22;20042;-78
2021/03/13 10:32:54;;;;;;;47.07;8.20;;;;;;;;;;6360101;22;20021;-77
2021/03/13 10:35:21;;;;;;;56.53;10.27;;;;;;;;;;6385144;22;20304;-76
2021/03/13 10:37:52;;;;;;;62.17;7.10;;;;;;;;;;6382665;22;20047;-78
2021/03/13 10:40:30;;;;;;;50.07;10.37;;;;;;;;;;6378705;22;20013;-77
2021/03/13 10:43:09;;;;;;;51.57;9.13;;;;;;;;;;6379728;22;20063;-77
2021/03/13 10:45:35;;;;;;;51.77;11.63;;;;;;;;;;6378612;22;20006;-77
2021/03/13 10:48:08;;;;;;;44.90;8.93;;;;;;;;;;6372285;22;20010;-76
2021/03/13 10:50:38;;;;;;;48.23;7.90;;;;;;;;;;6373174;22;20043;-78
2021/03/13 10:53:23;;;;;;;35.67;7.00;;;;;;;;;;6371535;22;20018;-76
2021/03/13 10:55:55;;;;;;;47.25;7.28;;;;;;;;;;6372735;22;20002;-77
2021/03/13 10:58:22;;;;;;;46.40;10.10;;;;;;;;;;6346186;22;20006;-76
2021/03/13 11:00:48;;;;;;;50.67;8.07;;;;;;;;;;6345888;22;20010;-77
2021/03/13 11:03:14;;;;;;;52.87;6.87;;;;;;;;;;6374107;22;20011;-78
2021/03/13 11:05:40;;;;;;;48.67;8.50;;;;;;;;;;6344907;22;20348;-79
2021/03/13 11:08:06;;;;;;;53.47;11.30;;;;;;;;;;6346292;22;20011;-78
2021/03/13 11:10:32;;;;;;;43.30;9.40;;;;;;;;;;6345232;22;20331;-78
2021/03/13 11:12:58;;;;;;;43.87;8.93;;;;;;;;;;6345252;22;20105;-76
2021/03/13 11:15:24;;;;;;;48.77;7.60;;;;;;;;;;6370877;22;20079;-78
2021/03/13 11:17:50;;;;;;;44.43;7.77;;;;;;;;;;6344886;22;19998;-78
2021/03/13 11:20:16;;;;;;;43.37;9.73;;;;;;;;;;6345957;22;20324;-77
2021/03/13 11:22:42;;;;;;;39.93;7.23;;;;;;;;;;6345539;22;20424;-77
2021/03/13 11:25:08;;;;;;;39.63;8.43;;;;;;;;;;6371885;22;20007;-76
2021/03/13 11:27:34;;;;;;;28.97;6.60;;;;;;;;;;6373212;22;20378;-76
2021/03/13 11:30:00;;;;;;;44.00;9.10;;;;;;;;;;6348968;22;20061;-77
2021/03/13 11:32:26;;;;;;;43.80;6.10;;;;;;;;;;6353359;22;20010;-76
2021/03/13 11:34:52;;;;;;;43.17;8.33;;;;;;;;;;6376744;22;20081;-76
2021/03/13 11:37:18;;;;;;;33.43;5.67;;;;;;;;;;6347578;22;20069;-77
2021/03/13 11:39:44;;;;;;;35.80;7.13;;;;;;;;;;6376513;22;20081;-77
2021/03/13 11:42:10;;;;;;;40.90;9.23;;;;;;;;;;6346888;22;20006;-78
2021/03/13 11:44:36;;;;;;;33.77;6.70;;;;;;;;;;6373649;22;20093;-77
2021/03/13 11:47:02;;;;;;;35.27;6.93;;;;;;;;;;6372609;22;20002;-77
2021/03/13 11:49:28;;;;;;;32.13;8.37;;;;;;;;;;6372254;22;19998;-77
2021/03/13 11:51:54;;;;;;;30.93;5.43;;;;;;;;;;6370740;22;20011;-77
2021/03/13 11:54:20;;;;;;;29.77;5.67;;;;;;;;;;6345640;22;20006;-75
2021/03/13 11:56:46;;;;;;;34.93;7.00;;;;;;;;;;6372908;22;20010;-77
2021/03/13 11:59:12;;;;;;;32.73;7.87;;;;;;;;;;6371997;22;20323;-78
2021/03/13 12:01:39;;;;;;;38.43;6.03;;;;;;;;;;6344428;22;19998;-77
2021/03/13 12:04:05;;;;;;;28.83;6.00;;;;;;;;;;6345970;22;20011;-76
2021/03/13 12:06:31;;;;;;;38.53;8.40;;;;;;;;;;6371105;22;20010;-79
2021/03/13 12:08:58;;;;;;;26.97;5.00;;;;;;;;;;6372058;22;20055;-77
2021/03/13 12:11:24;;;;;;;27.40;4.97;;;;;;;;;;6371649;22;20009;-77
2021/03/13 12:13:50;;;;;;;25.00;5.67;;;;;;;;;;6374075;22;20015;-78
2021/03/13 12:16:16;;;;;;;33.50;5.90;;;;;;;;;;6345755;22;20010;-77
2021/03/13 12:18:42;;;;;;;35.53;6.47;;;;;;;;;;6345737;22;20002;-77
2021/03/13 12:21:08;;;;;;;28.40;5.83;;;;;;;;;;6373591;22;20034;-76
2021/03/13 12:23:34;;;;;;;35.27;5.77;;;;;;;;;;6346497;22;20011;-78
2021/03/13 12:26:00;;;;;;;29.33;5.13;;;;;;;;;;6345316;22;20003;-76
2021/03/13 12:28:26;;;;;;;34.47;6.03;;;;;;;;;;6344362;22;20018;-76
2021/03/13 12:30:52;;;;;;;38.60;6.23;;;;;;;;;;6344976;22;20451;-77
2021/03/13 12:33:18;;;;;;;33.87;6.23;;;;;;;;;;6372065;22;20011;-76
2021/03/13 12:35:44;;;;;;;33.30;5.77;;;;;;;;;;6344542;22;20319;-78
2021/03/13 12:38:10;;;;;;;31.93;7.43;;;;;;;;;;6344330;22;20051;-76
2021/03/13 12:40:37;;;;;;;24.97;4.43;;;;;;;;;;6370086;22;20097;-78
2021/03/13 12:43:03;;;;;;;44.40;7.57;;;;;;;;;;6344856;22;20018;-75
2021/03/13 12:45:29;;;;;;;44.40;8.53;;;;;;;;;;6344687;22;20010;-77
2021/03/13 12:47:56;;;;;;;29.63;6.50;;;;;;;;;;6370625;22;20051;-77
2021/03/13 12:50:22;;;;;;;28.63;6.93;;;;;;;;;;6371891;22;20002;-77
2021/03/13 12:52:48;;;;;;;36.20;5.00;;;;;;;;;;6343971;22;20323;-77
2021/03/13 12:55:15;;;;;;;22.80;5.47;;;;;;;;;;6344718;22;20077;-78
2021/03/13 12:57:41;;;;;;;25.40;4.47;;;;;;;;;;6345677;22;20424;-78
2021/03/13 13:00:09;;;;;;;31.57;5.47;;;;;;;;;;6372094;22;20009;-78
2021/03/13 13:02:36;;;;;;;22.20;5.00;;;;;;;;;;6373826;22;20368;-78
2021/03/13 13:05:03;;;;;;;24.77;5.17;;;;;;;;;;6345901;22;20011;-77
2021/03/13 13:07:29;;;;;;;31.70;6.40;;;;;;;;;;6346430;22;20007;-78
2021/03/13 13:09:55;;;;;;;31.43;6.90;;;;;;;;;;6372839;22;20025;-76
2021/03/13 13:12:21;;;;;;;30.67;5.20;;;;;;;;;;6372743;22;20010;-77
2021/03/13 13:14:47;;;;;;;24.97;4.73;;;;;;;;;;6376300;22;20010;-75
2021/03/13 13:17:15;;;;;;;26.00;4.00;;;;;;;;;;6344459;22;20010;-78
2021/03/13 13:19:41;;;;;;;30.77;7.07;;;;;;;;;;6370332;22;20423;-77
2021/03/13 13:22:07;;;;;;;27.23;4.43;;;;;;;;;;6370297;22;20006;-77
2021/03/13 13:24:33;;;;;;;29.47;5.47;;;;;;;;;;6345019;22;20010;-78
2021/03/13 13:26:59;;;;;;;36.30;5.70;;;;;;;;;;6373141;22;20474;-79
2021/03/13 13:29:25;;;;;;;34.33;7.07;;;;;;;;;;6348337;22;20029;-79
2021/03/13 13:31:51;;;;;;;25.73;5.23;;;;;;;;;;6352908;22;20051;-78
2021/03/13 13:34:17;;;;;;;41.10;6.27;;;;;;;;;;6373966;22;20010;-77
2021/03/13 13:36:43;;;;;;;16.43;3.07;;;;;;;;;;6374148;22;20006;-78
2021/03/13 13:39:09;;;;;;;19.97;4.00;;;;;;;;;;6373220;22;20010;-77
2021/03/13 13:41:35;;;;;;;31.17;5.60;;;;;;;;;;6348613;22;20010;-79
2021/03/13 13:44:01;;;;;;;31.47;4.90;;;;;;;;;;6348134;22;20014;-78
2021/03/13 13:46:28;;;;;;;36.93;4.97;;;;;;;;;;6347166;22;20002;-78
2021/03/13 13:48:55;;;;;;;31.10;5.27;;;;;;;;;;6374133;22;20002;-78
2021/03/13 13:51:21;;;;;;;25.07;4.80;;;;;;;;;;6349032;22;20317;-78
2021/03/13 13:53:47;;;;;;;31.47;5.87;;;;;;;;;;6351905;22;20018;-79
2021/03/13 13:56:13;;;;;;;24.30;5.37;;;;;;;;;;6376005;22;20002;-78
2021/03/13 13:58:39;;;;;;;27.23;4.67;;;;;;;;;;6352446;22;20043;-78
2021/03/13 14:01:05;;;;;;;27.00;4.50;;;;;;;;;;6352018;22;20006;-78
2021/03/13 14:03:31;;;;;;;33.53;5.80;;;;;;;;;;6346450;22;20009;-78
2021/03/13 14:05:57;;;;;;;23.57;3.50;;;;;;;;;;6373532;22;20007;-79
2021/03/13 14:08:23;;;;;;;27.17;5.53;;;;;;;;;;6375152;22;20347;-77
2021/03/13 14:10:49;;;;;;;25.90;4.13;;;;;;;;;;6347104;22;20025;-78
2021/03/13 14:13:16;;;;;;;25.63;4.40;;;;;;;;;;6373860;22;20024;-78
2021/03/13 14:15:42;;;;;;;28.47;5.20;;;;;;;;;;6347904;22;20331;-77
2021/03/13 14:18:08;;;;;;;25.20;4.77;;;;;;;;;;6376005;22;20064;-78
2021/03/13 14:20:34;;;;;;;29.43;5.93;;;;;;;;;;6377682;22;19994;-78
2021/03/13 14:23:00;;;;;;;34.87;6.00;;;;;;;;;;6373475;22;20021;-78
2021/03/13 14:25:27;;;;;;;20.20;4.93;;;;;;;;;;6376557;22;19994;-79
2021/03/13 14:27:53;;;;;;;17.23;4.20;;;;;;;;;;6376416;22;20022;-78
2021/03/13 14:30:19;;;;;;;21.97;4.20;;;;;;;;;;6350197;22;20013;-78
2021/03/13 14:32:46;;;;;;;24.70;4.37;;;;;;;;;;6377930;22;20014;-78